createdAt,value
2019-06-08T00:00:20.791Z,97858.30
2019-06-08T00:02:55.332Z,97847.17
2019-06-08T00:05:29.761Z,97851.84
2019-06-08T00:08:03.007Z,97857.52
2019-06-08T00:10:37.286Z,97870.47
2019-06-08T00:13:13.041Z,97882.64
2019-06-08T00:15:48.621Z,97882.20
2019-06-08T00:18:23.624Z,97882.20
2019-06-08T00:20:58.238Z,97877.00
2019-06-08T00:23:32.678Z,97883.69
2019-06-08T00:26:05.671Z,97884.36
2019-06-08T00:28:41.295Z,97883.84
2019-06-08T00:31:17.162Z,97875.37
2019-06-08T00:33:51.765Z,97885.69
2019-06-08T00:36:26.200Z,97895.50
2019-06-08T00:39:00.870Z,97898.57
2019-06-08T00:41:38.871Z,97899.63
2019-06-08T00:44:13.272Z,97890.31
2019-06-08T00:46:47.846Z,97901.33
2019-06-08T00:49:20.699Z,97901.33
2019-06-08T00:51:54.937Z,97916.47
2019-06-08T00:54:29.800Z,97908.10
2019-06-08T00:57:02.861Z,97919.22
2019-06-08T00:59:37.107Z,97917.64
2019-06-08T01:02:11.668Z,97937.03
2019-06-08T01:04:46.061Z,97937.03
2019-06-08T01:07:22.022Z,97931.95
2019-06-08T01:09:56.778Z,97931.95
2019-06-08T01:12:30.953Z,97930.04
2019-06-08T01:15:05.897Z,97936.88
2019-06-08T01:17:40.286Z,97955.61
2019-06-08T01:20:14.862Z,97968.80
2019-06-08T01:22:49.113Z,97968.80
2019-06-08T01:25:23.756Z,97987.44
2019-06-08T01:27:56.861Z,97979.56
2019-06-08T01:30:31.353Z,97969.12
2019-06-08T01:33:05.946Z,97968.73
2019-06-08T01:35:40.648Z,97964.33
2019-06-08T01:38:14.949Z,97958.72
2019-06-08T01:40:49.285Z,97968.00
2019-06-08T01:43:23.936Z,97978.97
2019-06-08T01:45:57.006Z,97993.01
2019-06-08T01:48:32.296Z,97984.56
2019-06-08T01:51:06.937Z,97986.92
2019-06-08T01:53:41.277Z,97986.92
2019-06-08T01:56:15.718Z,97986.92
2019-06-08T01:58:49.965Z,97986.92
2019-06-08T02:01:25.478Z,97983.13
2019-06-08T02:03:58.665Z,97968.55
2019-06-08T02:06:37.314Z,97978.97
2019-06-08T02:09:11.945Z,97993.27
2019-06-08T02:11:46.639Z,97993.38
2019-06-08T02:14:21.128Z,98002.29
2019-06-08T02:16:55.684Z,97998.75
2019-06-08T02:19:30.565Z,97995.41
2019-06-08T02:22:04.947Z,97989.53
2019-06-08T02:24:39.621Z,97984.72
2019-06-08T02:27:14.276Z,97977.59
2019-06-08T02:29:48.743Z,97984.97
2019-06-08T02:32:23.119Z,97973.86
2019-06-08T02:34:57.540Z,97985.06
2019-06-08T02:37:33.090Z,97975.92
2019-06-08T02:40:07.938Z,97984.81
2019-06-08T02:42:40.983Z,97966.48
2019-06-08T02:45:14.280Z,97966.48
2019-06-08T02:47:48.750Z,97966.22
2019-06-08T02:50:48.595Z,97963.72
2019-06-08T02:53:23.654Z,97967.55
2019-06-08T02:55:59.284Z,97970.53
2019-06-08T02:58:36.925Z,97972.34
2019-06-08T03:01:12.069Z,97978.19
2019-06-08T03:03:47.646Z,97970.57
2019-06-08T03:06:23.665Z,97970.57
2019-06-08T03:09:00.321Z,97979.27
2019-06-08T03:11:40.920Z,98014.92
2019-06-08T03:14:15.701Z,98014.92
2019-06-08T03:16:48.653Z,98012.89
2019-06-08T03:19:23.272Z,98011.05
2019-06-08T03:21:58.283Z,97994.02
2019-06-08T03:24:34.421Z,97997.55
2019-06-08T03:27:09.686Z,97990.94
2019-06-08T03:29:44.043Z,98000.86
2019-06-08T03:32:18.266Z,98006.17
2019-06-08T03:34:56.476Z,98001.87
2019-06-08T03:37:29.276Z,98008.70
2019-06-08T03:40:03.690Z,98009.01
2019-06-08T03:42:38.296Z,98007.25
2019-06-08T03:45:13.684Z,98021.50
2019-06-08T03:47:47.951Z,98031.97
2019-06-08T03:50:22.671Z,98049.01
2019-06-08T03:52:57.113Z,98049.01
2019-06-08T03:55:31.670Z,98081.05
2019-06-08T03:58:06.105Z,98081.05
2019-06-08T04:00:40.555Z,98102.16
2019-06-08T04:03:14.939Z,98102.16
2019-06-08T04:05:50.086Z,98104.42
2019-06-08T04:08:24.716Z,98100.86
2019-06-08T04:10:59.130Z,98087.13
2019-06-08T04:13:33.695Z,98088.40
2019-06-08T04:16:08.285Z,98088.91
2019-06-08T04:18:44.503Z,98094.76
2019-06-08T04:21:18.978Z,98098.30
2019-06-08T04:23:53.362Z,98115.38
2019-06-08T04:26:28.672Z,98100.84
2019-06-08T04:29:03.348Z,98109.25
2019-06-08T04:31:43.994Z,98124.55
2019-06-08T04:34:19.948Z,98114.08
2019-06-08T04:38:50.267Z,98106.23
2019-06-08T04:41:24.948Z,98124.29
2019-06-08T04:43:59.317Z,98108.53
2019-06-08T04:46:38.367Z,98115.62
2019-06-08T04:49:12.948Z,98130.41
2019-06-08T04:51:49.570Z,98113.66
2019-06-08T04:54:22.812Z,98128.40
2019-06-08T04:56:57.139Z,98144.94
2019-06-08T04:59:31.684Z,98138.81
2019-06-08T05:02:07.595Z,98151.22
2019-06-08T05:04:43.255Z,98160.15
2019-06-08T05:07:17.894Z,98141.61
2019-06-08T05:09:52.358Z,98144.63
2019-06-08T05:12:26.954Z,98139.30
2019-06-08T05:15:00.063Z,98150.48
2019-06-08T05:17:34.283Z,98169.02
2019-06-08T05:20:08.891Z,98173.35
2019-06-08T05:22:43.606Z,98195.95
2019-06-08T05:25:17.953Z,98192.64
2019-06-08T05:27:52.296Z,98201.06
2019-06-08T05:30:28.190Z,98206.52
2019-06-08T05:33:02.913Z,98206.52
2019-06-08T05:35:36.050Z,98186.65
2019-06-08T05:40:27.284Z,98197.36
2019-06-08T05:43:01.957Z,98188.45
2019-06-08T05:45:36.651Z,98189.45
2019-06-08T05:48:10.947Z,98189.45
2019-06-08T05:51:00.499Z,98187.42
2019-06-08T05:53:21.354Z,98200.66
2019-06-08T05:55:55.897Z,98199.66
2019-06-08T05:58:30.266Z,98184.58
2019-06-08T06:01:04.694Z,98186.06
2019-06-08T06:03:40.328Z,98178.16
2019-06-08T06:08:35.660Z,98177.19
2019-06-08T06:11:10.549Z,98177.19
2019-06-08T06:13:45.185Z,98182.58
2019-06-08T06:16:19.687Z,98214.06
2019-06-08T06:18:54.136Z,98217.63
2019-06-08T06:21:29.589Z,98217.63
2019-06-08T06:24:05.650Z,98227.70
2019-06-08T06:26:43.235Z,98219.08
2019-06-08T06:29:17.707Z,98236.09
2019-06-08T06:31:52.199Z,98238.34
2019-06-08T06:34:26.991Z,98213.48
2019-06-08T06:37:01.689Z,98240.71
2019-06-08T06:39:34.708Z,98240.71
2019-06-08T06:42:09.195Z,98251.36
2019-06-08T06:44:45.714Z,98249.31
2019-06-08T06:47:20.165Z,98256.46
2019-06-08T06:49:54.959Z,98250.08
2019-06-08T06:52:29.665Z,98272.52
2019-06-08T06:55:04.249Z,98272.52
2019-06-08T06:57:38.697Z,98258.84
2019-06-08T07:00:12.282Z,98277.67
2019-06-08T07:02:47.629Z,98276.38
2019-06-08T07:05:22.131Z,98269.36
2019-06-08T07:07:56.746Z,98282.36
2019-06-08T07:10:31.213Z,98282.36
2019-06-08T07:13:05.753Z,98266.59
2019-06-08T07:15:41.910Z,98271.44
2019-06-08T07:18:15.955Z,98271.44
2019-06-08T07:20:50.310Z,98269.94
2019-06-08T07:23:24.924Z,98286.47
2019-06-08T07:25:59.354Z,98286.22
2019-06-08T07:28:34.093Z,98299.22
2019-06-08T07:31:08.625Z,98311.70
2019-06-08T07:33:42.949Z,98311.70
2019-06-08T07:36:17.944Z,98304.83
2019-06-08T07:38:51.425Z,98317.08
2019-06-08T07:41:26.255Z,98330.04
2019-06-08T07:44:01.283Z,98326.73
2019-06-08T07:46:40.954Z,98342.03
2019-06-08T07:49:14.286Z,98342.03
2019-06-08T07:51:58.709Z,98331.59
2019-06-08T07:54:25.137Z,98331.59
2019-06-08T07:56:59.770Z,98355.77
2019-06-08T07:59:34.701Z,98335.69
2019-06-08T08:02:09.281Z,98335.69
2019-06-08T08:04:43.918Z,98337.98
2019-06-08T08:07:18.514Z,98335.66
2019-06-08T08:09:54.803Z,98368.28
2019-06-08T08:12:29.690Z,98344.30
2019-06-08T08:15:04.337Z,98344.30
2019-06-08T08:17:39.285Z,98357.35
2019-06-08T08:20:13.948Z,98376.97
2019-06-08T08:22:52.615Z,98350.92
2019-06-08T08:25:25.278Z,98350.92
2019-06-08T08:28:01.067Z,98361.65
2019-06-08T08:30:37.669Z,98365.52
2019-06-08T08:33:11.121Z,98365.52
2019-06-08T08:35:48.178Z,98367.52
2019-06-08T08:38:23.465Z,98367.52
2019-06-08T08:41:06.301Z,98377.13
2019-06-08T08:43:34.342Z,98377.13
2019-06-08T08:46:08.979Z,98364.13
2019-06-08T08:48:43.694Z,98368.21
2019-06-08T08:51:20.698Z,98389.56
2019-06-08T08:53:59.970Z,98369.45
2019-06-08T08:56:38.159Z,98382.48
2019-06-08T08:59:12.063Z,98363.35
2019-06-08T09:01:48.279Z,98388.33
2019-06-08T09:04:23.078Z,98388.33
2019-06-08T09:07:02.380Z,98406.30
2019-06-08T09:09:34.283Z,98406.30
2019-06-08T09:12:08.887Z,98397.89
2019-06-08T09:14:43.327Z,98401.69
2019-06-08T09:17:18.217Z,98401.69
2019-06-08T09:19:54.019Z,98417.78
2019-06-08T09:22:28.190Z,98423.13
2019-06-08T09:25:04.509Z,98415.92
2019-06-08T09:27:39.277Z,98415.92
2019-06-08T09:30:14.773Z,98429.18
2019-06-08T09:32:49.340Z,98405.23
2019-06-08T09:35:23.989Z,98405.23
2019-06-08T09:38:01.089Z,98423.75
2019-06-08T09:40:34.639Z,98428.19
2019-06-08T09:43:12.342Z,98413.09
2019-06-08T09:45:44.276Z,98408.30
2019-06-08T09:48:18.713Z,98407.75
2019-06-08T09:50:53.203Z,98422.31
2019-06-08T09:53:36.596Z,98435.27
2019-06-08T09:56:06.522Z,98435.27
2019-06-08T09:58:40.704Z,98444.27
2019-06-08T10:01:15.506Z,98444.27
2019-06-08T10:03:50.434Z,98429.23
2019-06-08T10:06:24.947Z,98428.20
2019-06-08T10:10:40.674Z,98437.31
2019-06-08T10:13:13.685Z,98434.62
2019-06-08T10:15:51.335Z,98470.98
2019-06-08T10:18:24.351Z,98444.52
2019-06-08T10:21:01.373Z,98450.38
2019-06-08T10:23:41.198Z,98440.98
2019-06-08T10:26:13.458Z,98440.98
2019-06-08T10:31:01.207Z,98444.02
2019-06-08T10:33:37.714Z,98449.10
2019-06-08T10:36:12.827Z,98449.10
2019-06-08T10:38:48.073Z,98437.65
2019-06-08T10:41:23.257Z,98437.65
2019-06-08T10:43:59.127Z,98434.32
2019-06-08T10:46:40.319Z,98431.50
2019-06-08T10:49:14.146Z,98438.41
2019-06-08T10:51:49.014Z,98445.23
2019-06-08T10:54:23.967Z,98429.62
2019-06-08T10:57:01.828Z,98429.62
2019-06-08T10:59:43.537Z,98432.76
2019-06-08T11:02:19.305Z,98435.86
2019-06-08T11:04:53.897Z,98428.32
2019-06-08T11:10:11.631Z,98417.42
2019-06-08T11:12:44.361Z,98428.30
2019-06-08T11:15:20.696Z,98420.38
2019-06-08T11:17:59.930Z,98431.90
2019-06-08T11:20:31.757Z,98426.94
2019-06-08T11:23:09.821Z,98426.55
2019-06-08T11:25:41.110Z,98421.63
2019-06-08T11:28:18.442Z,98418.77
2019-06-08T11:30:53.734Z,98416.33
2019-06-08T11:33:30.426Z,98430.64
2019-06-08T11:36:09.995Z,98418.59
2019-06-08T11:38:41.294Z,98418.59
2019-06-08T11:41:18.311Z,98409.96
2019-06-08T11:43:52.270Z,98401.51
2019-06-08T11:46:28.217Z,98397.80
2019-06-08T11:49:05.894Z,98426.55
2019-06-08T11:51:47.684Z,98404.48
2019-06-08T11:54:36.314Z,98414.97
2019-06-08T11:56:58.340Z,98423.87
2019-06-08T11:59:34.755Z,98423.50
2019-06-08T12:02:13.541Z,98424.63
2019-06-08T12:04:46.276Z,98423.70
2019-06-08T12:07:20.886Z,98419.08
2019-06-08T12:09:55.292Z,98441.47
2019-06-08T12:12:29.742Z,98434.06
2019-06-08T12:15:04.843Z,98417.03
2019-06-08T12:17:39.335Z,98427.98
2019-06-08T12:20:17.562Z,98425.60
2019-06-08T12:22:50.355Z,98434.20
2019-06-08T12:25:24.985Z,98434.16
2019-06-08T12:27:59.786Z,98429.60
2019-06-08T12:30:32.862Z,98429.60
2019-06-08T12:33:09.372Z,98431.70
2019-06-08T12:35:43.898Z,98448.33
2019-06-08T12:38:19.259Z,98439.50
2019-06-08T12:41:17.097Z,98432.13
2019-06-08T12:43:51.402Z,98452.23
2019-06-08T12:46:28.401Z,98449.28
2019-06-08T12:49:02.983Z,98423.70
2019-06-08T12:51:42.669Z,98446.70
2019-06-08T12:54:19.386Z,98463.52
2019-06-08T12:56:53.300Z,98448.08
2019-06-08T12:59:28.431Z,98479.26
2019-06-08T13:02:02.937Z,98479.26
2019-06-08T13:04:38.383Z,98476.52
2019-06-08T13:07:13.208Z,98476.94
2019-06-08T13:09:48.353Z,98492.36
2019-06-08T13:12:22.899Z,98481.09
2019-06-08T13:14:58.255Z,98484.25
2019-06-08T13:17:32.926Z,98484.25
2019-06-08T13:20:12.793Z,98494.52
2019-06-08T13:22:48.001Z,98491.22
2019-06-08T13:25:36.461Z,98500.98
2019-06-08T13:27:58.717Z,98480.39
2019-06-08T13:30:32.473Z,98480.39
2019-06-08T13:33:08.167Z,98479.14
2019-06-08T13:35:42.927Z,98461.52
2019-06-08T13:38:19.653Z,98484.75
2019-06-08T13:40:53.356Z,98476.20
2019-06-08T13:43:27.945Z,98480.98
2019-06-08T13:46:02.274Z,98494.36
2019-06-08T13:48:37.635Z,98485.44
2019-06-08T13:51:11.852Z,98482.65
2019-06-08T13:53:47.851Z,98480.83
2019-06-08T13:56:24.027Z,98500.32
2019-06-08T13:58:58.735Z,98495.33
2019-06-08T14:01:33.564Z,98480.89
2019-06-08T14:04:08.813Z,98488.52
2019-06-08T14:06:48.583Z,98491.13
2019-06-08T14:09:23.290Z,98466.40
2019-06-08T14:11:58.157Z,98477.88
2019-06-08T14:14:33.779Z,98480.48
2019-06-08T14:17:08.680Z,98473.91
2019-06-08T14:19:42.044Z,98473.91
2019-06-08T14:22:20.097Z,98471.30
2019-06-08T14:24:52.358Z,98477.45
2019-06-08T14:27:28.560Z,98482.16
2019-06-08T14:30:03.122Z,98482.96
2019-06-08T14:32:38.221Z,98478.45
2019-06-08T14:35:12.876Z,98483.41
2019-06-08T14:37:48.197Z,98477.72
2019-06-08T14:40:23.458Z,98473.08
2019-06-08T14:42:58.172Z,98474.96
2019-06-08T14:45:32.731Z,98474.50
2019-06-08T14:48:05.678Z,98464.09
2019-06-08T14:50:40.837Z,98463.61
2019-06-08T14:53:18.446Z,98474.67
2019-06-08T14:56:04.937Z,98464.19
2019-06-08T14:58:33.572Z,98474.84
2019-06-08T15:01:05.112Z,98474.84
2019-06-08T15:03:39.688Z,98479.97
2019-06-08T15:06:12.865Z,98479.78
2019-06-08T15:08:50.033Z,98479.78
2019-06-08T15:11:21.716Z,98474.44
2019-06-08T15:13:58.167Z,98466.89
2019-06-08T15:16:33.435Z,98466.89
2019-06-08T15:19:08.243Z,98465.33
2019-06-08T15:21:44.963Z,98475.32
2019-06-08T15:24:20.642Z,98473.89
2019-06-08T15:26:53.812Z,98473.89
2019-06-08T15:29:30.719Z,98474.34
2019-06-08T15:32:04.720Z,98470.87
2019-06-08T15:34:39.125Z,98470.87
2019-06-08T15:37:13.753Z,98479.98
2019-06-08T15:39:48.654Z,98466.42
2019-06-08T15:42:24.259Z,98480.30
2019-06-08T15:44:59.623Z,98473.00
2019-06-08T15:47:32.859Z,98465.41
2019-06-08T15:50:09.282Z,98465.96
2019-06-08T15:52:44.679Z,98471.50
2019-06-08T15:55:20.007Z,98474.95
2019-06-08T15:57:55.689Z,98465.23
2019-06-08T16:00:33.230Z,98459.30
2019-06-08T16:03:08.952Z,98461.72
2019-06-08T16:05:43.286Z,98455.41
2019-06-08T16:08:17.793Z,98460.50
2019-06-08T16:10:50.805Z,98453.55
2019-06-08T16:13:24.976Z,98463.27
2019-06-08T16:18:46.996Z,98455.56
2019-06-08T16:21:21.364Z,98456.67
2019-06-08T16:23:56.302Z,98460.94
2019-06-08T16:26:31.734Z,98460.33
2019-06-08T16:29:07.962Z,98460.33
2019-06-08T16:31:44.338Z,98458.35
2019-06-08T16:34:18.807Z,98454.20
2019-06-08T16:36:52.975Z,98450.33
2019-06-08T16:39:28.619Z,98452.20
2019-06-08T16:42:02.130Z,98450.47
2019-06-08T16:44:36.762Z,98450.67
2019-06-08T16:47:11.276Z,98450.67
2019-06-08T16:49:45.933Z,98460.11
2019-06-08T16:52:20.623Z,98460.11
2019-06-08T16:54:55.002Z,98458.27
2019-06-08T16:57:30.948Z,98475.11
2019-06-08T17:00:30.097Z,98460.16
2019-06-08T17:02:41.956Z,98460.16
2019-06-08T17:05:16.287Z,98476.64
2019-06-08T17:07:51.780Z,98466.59
2019-06-08T17:10:24.871Z,98468.57
2019-06-08T17:12:58.962Z,98471.91
2019-06-08T17:15:34.081Z,98469.78
2019-06-08T17:18:08.743Z,98466.20
2019-06-08T17:20:43.349Z,98466.20
2019-06-08T17:23:17.898Z,98471.13
2019-06-08T17:25:52.282Z,98466.84
2019-06-08T17:28:26.750Z,98465.87
2019-06-08T17:31:01.278Z,98463.19
2019-06-08T17:33:35.905Z,98455.50
2019-06-08T17:36:10.376Z,98464.27
2019-06-08T17:38:45.123Z,98474.53
2019-06-08T17:41:19.722Z,98474.05
2019-06-08T17:43:54.279Z,98474.05
2019-06-08T17:46:29.296Z,98468.83
2019-06-08T17:50:35.116Z,98476.59
2019-06-08T17:53:09.723Z,98476.59
2019-06-08T17:55:44.294Z,98479.78
2019-06-08T17:58:21.196Z,98488.62
2019-06-08T18:00:55.096Z,98490.22
2019-06-08T18:03:29.690Z,98482.60
2019-06-08T18:06:07.159Z,98482.60
2019-06-08T18:08:41.960Z,98490.22
2019-06-08T18:11:17.329Z,98487.94
2019-06-08T18:13:51.957Z,98497.13
2019-06-08T18:16:27.870Z,98501.96
2019-06-08T18:19:03.562Z,98501.96
2019-06-08T18:21:42.914Z,98498.90
2019-06-08T18:24:17.590Z,98492.67
2019-06-08T18:26:52.704Z,98495.35
2019-06-08T18:29:27.655Z,98503.09
2019-06-08T18:32:03.585Z,98500.22
2019-06-08T18:34:39.965Z,98507.33
2019-06-08T18:37:13.660Z,98509.68
2019-06-08T18:39:50.700Z,98509.23
2019-06-08T18:42:23.701Z,98509.23
2019-06-08T18:44:58.372Z,98516.70
2019-06-08T18:47:33.306Z,98526.11
2019-06-08T18:50:09.071Z,98526.11
2019-06-08T18:52:46.522Z,98534.80
2019-06-08T18:55:22.339Z,98536.86
2019-06-08T18:57:59.001Z,98523.38
2019-06-08T19:00:42.038Z,98540.48
2019-06-08T19:03:17.148Z,98540.48
2019-06-08T19:05:52.408Z,98538.73
2019-06-08T19:08:28.897Z,98539.63
2019-06-08T19:11:03.689Z,98539.63
2019-06-08T19:13:37.901Z,98550.41
2019-06-08T19:16:12.353Z,98555.27
2019-06-08T19:18:52.570Z,98565.74
2019-06-08T19:21:27.790Z,98575.20
2019-06-08T19:24:02.958Z,98575.20
2019-06-08T19:26:39.737Z,98576.00
2019-06-08T19:29:14.291Z,98582.45
2019-06-08T19:31:51.396Z,98582.45
2019-06-08T19:34:29.029Z,98591.17
2019-06-08T19:37:02.668Z,98595.02
2019-06-08T19:39:39.598Z,98595.02
2019-06-08T19:42:13.290Z,98594.78
2019-06-08T19:44:59.634Z,98603.71
2019-06-08T19:47:23.940Z,98607.03
2019-06-08T19:49:58.380Z,98600.63
2019-06-08T19:52:33.888Z,98611.66
2019-06-08T19:55:08.320Z,98612.41
2019-06-08T19:57:43.373Z,98620.31
2019-06-08T20:00:18.210Z,98619.03
2019-06-08T20:02:55.086Z,98625.16
2019-06-08T20:05:29.273Z,98625.94
2019-06-08T20:08:03.898Z,98625.94
2019-06-08T20:10:39.065Z,98635.66
2019-06-08T20:13:15.787Z,98632.85
2019-06-08T20:15:56.497Z,98630.07
2019-06-08T20:18:27.930Z,98630.07
2019-06-08T20:21:02.662Z,98634.42
2019-06-08T20:23:38.289Z,98636.95
2019-06-08T20:26:13.509Z,98639.77
2019-06-08T20:28:51.015Z,98648.42
2019-06-08T20:31:23.959Z,98649.72
2019-06-08T20:33:58.679Z,98641.03
2019-06-08T20:36:33.966Z,98647.38
2019-06-08T20:39:10.406Z,98647.38
2019-06-08T20:41:48.930Z,98656.80
2019-06-08T20:44:22.008Z,98648.36
2019-06-08T20:46:57.735Z,98634.77
2019-06-08T20:49:32.144Z,98634.77
2019-06-08T20:52:08.616Z,98648.73
2019-06-08T20:54:42.961Z,98648.73
2019-06-08T20:57:17.709Z,98644.61
2019-06-08T20:59:53.580Z,98655.49
2019-06-08T21:02:28.473Z,98655.34
2019-06-08T21:05:02.902Z,98653.72
2019-06-08T21:07:37.340Z,98642.43
2019-06-08T21:10:13.289Z,98642.43
2019-06-08T21:12:49.906Z,98645.14
2019-06-08T21:15:23.960Z,98649.43
2019-06-08T21:17:58.284Z,98655.69
2019-06-08T21:20:32.727Z,98661.03
2019-06-08T21:23:08.159Z,98656.98
2019-06-08T21:25:42.898Z,98657.23
2019-06-08T21:28:17.285Z,98664.31
2019-06-08T21:30:55.975Z,98661.95
2019-06-08T21:33:27.950Z,98653.99
2019-06-08T21:36:04.995Z,98661.84
2019-06-08T21:38:37.761Z,98656.73
2019-06-08T21:41:12.286Z,98653.05
2019-06-08T21:43:51.662Z,98647.69
2019-06-08T21:46:24.413Z,98655.53
2019-06-08T21:49:00.586Z,98650.91
2019-06-08T21:51:34.027Z,98662.32
2019-06-08T21:54:09.674Z,98663.52
2019-06-08T21:56:47.599Z,98664.48
2019-06-08T21:59:24.651Z,98657.79
2019-06-08T22:02:03.495Z,98657.79
2019-06-08T22:04:37.213Z,98682.80
2019-06-08T22:07:11.946Z,98682.80
2019-06-08T22:09:48.025Z,98674.34
2019-06-08T22:12:22.683Z,98684.14
2019-06-08T22:14:59.286Z,98684.14
2019-06-08T22:17:31.953Z,98694.77
2019-06-08T22:20:08.067Z,98690.77
2019-06-08T22:22:42.922Z,98690.77
2019-06-08T22:25:17.705Z,98696.95
2019-06-08T22:27:51.074Z,98707.27
2019-06-08T22:30:36.321Z,98704.55
2019-06-08T22:33:02.359Z,98699.92
2019-06-08T22:35:37.358Z,98699.92
2019-06-08T22:38:13.278Z,98707.91
2019-06-08T22:40:48.286Z,98709.16
2019-06-08T22:43:23.283Z,98709.16
2019-06-08T22:46:00.239Z,98715.25
2019-06-08T22:48:33.888Z,98725.44
2019-06-08T22:51:09.277Z,98717.20
2019-06-08T22:53:43.947Z,98719.69
2019-06-08T22:56:18.448Z,98722.96
2019-06-08T22:58:54.367Z,98713.05
2019-06-08T23:01:29.669Z,98724.91
2019-06-08T23:04:06.265Z,98724.91
2019-06-08T23:06:41.776Z,98722.24
2019-06-08T23:09:17.996Z,98722.24
2019-06-08T23:11:55.552Z,98722.24
2019-06-08T23:14:30.319Z,98734.74
2019-06-08T23:17:05.567Z,98734.74
2019-06-08T23:19:40.266Z,98731.18
2019-06-08T23:22:14.788Z,98729.16
2019-06-08T23:24:47.806Z,98724.05
2019-06-08T23:27:22.347Z,98726.07
2019-06-08T23:29:59.094Z,98735.99
2019-06-08T23:32:33.201Z,98727.83
2019-06-08T23:35:09.367Z,98725.52
2019-06-08T23:37:44.110Z,98717.98
2019-06-08T23:40:18.675Z,98715.11
2019-06-08T23:42:52.939Z,98715.11
2019-06-08T23:45:27.199Z,98724.17
2019-06-08T23:48:02.846Z,98730.63
2019-06-08T23:50:37.909Z,98731.52
2019-06-08T23:53:12.655Z,98733.06
2019-06-08T23:55:47.964Z,98733.06
2019-06-08T23:58:22.662Z,98732.47
